createdAt,value
2023-04-27T11:12:27.111Z,91.91
2023-04-27T11:13:27.056Z,91.77
2023-04-27T11:14:26.997Z,88.74
2023-04-27T11:15:26.989Z,87.30
2023-04-27T11:16:27.000Z,86.87
2023-04-27T11:17:26.985Z,87.44
2023-04-27T11:18:26.955Z,85.52
2023-04-27T11:19:26.958Z,85.14
2023-04-27T11:20:26.944Z,84.85
2023-04-27T11:21:26.930Z,83.26
2023-04-27T11:22:26.915Z,84.60
2023-04-27T11:23:26.917Z,84.70
2023-04-27T11:24:26.884Z,83.26
2023-04-27T11:25:26.889Z,82.74
2023-04-27T11:26:26.860Z,84.22
2023-04-27T11:27:26.841Z,84.74
2023-04-27T11:28:26.849Z,83.59
2023-04-27T11:29:26.842Z,82.82
2023-04-27T11:30:26.836Z,80.99
2023-04-27T11:31:26.853Z,81.20
2023-04-27T11:32:26.884Z,82.49
2023-04-27T11:33:26.792Z,83.01
2023-04-27T11:34:26.788Z,82.63
2023-04-27T11:35:26.766Z,82.09
2023-04-27T11:36:26.753Z,82.48
2023-04-27T11:37:26.735Z,81.37
2023-04-27T11:38:26.813Z,80.17
2023-04-27T11:39:26.794Z,81.42
2023-04-27T11:40:26.723Z,79.99
2023-04-27T11:41:26.677Z,81.63
2023-04-27T11:42:26.692Z,83.45
2023-04-27T11:43:26.669Z,83.30
2023-04-27T11:44:26.691Z,83.54
2023-04-27T11:45:26.634Z,82.74
2023-04-27T11:46:26.693Z,83.41
2023-04-27T11:47:26.676Z,83.07
2023-04-27T11:48:26.610Z,81.26
2023-04-27T11:49:26.584Z,81.84
2023-04-27T11:50:26.608Z,82.84
2023-04-27T11:51:26.563Z,83.70
2023-04-27T11:52:26.578Z,81.97
2023-04-27T11:53:26.570Z,81.01
2023-04-27T11:54:26.534Z,82.07
2023-04-27T11:55:26.528Z,83.26
2023-04-27T11:56:26.534Z,81.96
2023-04-27T11:57:26.496Z,80.90
2023-04-27T11:58:26.489Z,80.66
2023-04-27T11:59:26.493Z,81.24
2023-04-27T12:00:26.485Z,81.15
2023-04-27T12:01:36.953Z,80.66
2023-04-27T12:02:26.549Z,80.76
2023-04-27T12:03:26.888Z,81.59
2023-04-27T12:04:26.582Z,83.12
2023-04-27T12:05:26.530Z,82.64
2023-04-27T12:06:32.617Z,82.98
2023-04-27T12:07:26.401Z,84.18
2023-04-27T12:08:26.376Z,84.08
2023-04-27T12:09:26.375Z,84.08
2023-04-27T12:10:26.366Z,83.31
2023-04-27T12:11:26.352Z,83.04
2023-04-27T12:12:26.348Z,83.94
2023-04-27T12:13:26.326Z,84.33
2023-04-27T12:14:26.333Z,84.47
2023-04-27T12:15:26.322Z,83.65
2023-04-27T12:16:26.320Z,83.80
2023-04-27T12:17:26.339Z,82.93
2023-04-27T12:18:26.297Z,83.31
2023-04-27T12:19:26.269Z,83.84
2023-04-27T12:20:26.252Z,84.26
2023-04-27T12:21:26.250Z,83.97
2023-04-27T12:22:26.226Z,82.20
2023-04-27T12:23:26.214Z,83.30
2023-04-27T12:24:26.198Z,83.30
2023-04-27T12:25:26.191Z,83.15
2023-04-27T12:26:26.179Z,80.71
2023-04-27T12:27:26.172Z,80.13
2023-04-27T12:28:26.171Z,80.99
2023-04-27T12:29:26.140Z,80.13
2023-04-27T12:30:26.146Z,79.98
2023-04-27T12:31:27.816Z,81.81
2023-04-27T12:32:26.169Z,81.90
2023-04-27T12:33:26.109Z,80.13
2023-04-27T12:34:26.085Z,81.57
2023-04-27T12:35:26.096Z,81.57
2023-04-27T12:36:26.085Z,81.61
2023-04-27T12:37:27.090Z,80.84
2023-04-27T12:38:26.036Z,80.42
2023-04-27T12:39:26.047Z,79.79
2023-04-27T12:40:26.025Z,80.27
2023-04-27T12:41:26.012Z,80.65
2023-04-27T12:42:26.019Z,79.65
2023-04-27T12:43:25.975Z,80.76
2023-04-27T12:44:25.991Z,81.48
2023-04-27T12:45:26.012Z,81.48
2023-04-27T12:46:26.061Z,80.90
2023-04-27T12:48:25.953Z,82.90
2023-04-27T12:49:25.913Z,81.56
2023-04-27T12:50:25.941Z,78.75
2023-04-27T12:51:25.919Z,78.45
2023-04-27T12:52:25.910Z,80.04
2023-04-27T12:53:25.884Z,79.65
2023-04-27T12:54:25.864Z,79.94
2023-04-27T12:55:33.813Z,79.92
2023-04-27T12:56:25.851Z,78.33
2023-04-27T12:57:25.848Z,78.65
2023-04-27T12:58:25.849Z,80.19
2023-04-27T12:59:25.825Z,78.46
2023-04-27T13:00:25.842Z,77.65
2023-04-27T13:01:25.838Z,77.48
2023-04-27T13:02:25.881Z,78.25
2023-04-27T13:03:25.911Z,80.36
2023-04-27T13:04:26.063Z,78.86
2023-04-27T13:05:25.785Z,77.73
2023-04-27T13:06:25.748Z,80.94
2023-04-27T13:07:25.751Z,80.46
2023-04-27T13:08:25.756Z,78.86
2023-04-27T13:09:25.713Z,78.90
2023-04-27T13:10:25.739Z,78.21
2023-04-27T13:11:25.709Z,78.75
2023-04-27T13:12:25.694Z,78.75
2023-04-27T13:13:25.699Z,80.86
2023-04-27T13:14:25.692Z,80.51
2023-04-27T13:15:25.668Z,80.17
2023-04-27T13:16:25.952Z,78.15
2023-04-27T13:17:25.661Z,78.13
2023-04-27T13:18:25.649Z,76.17
2023-04-27T13:19:25.617Z,75.49
2023-04-27T13:20:25.618Z,76.81
2023-04-27T13:21:25.594Z,77.78
2023-04-27T13:22:25.588Z,78.55
2023-04-27T13:23:25.578Z,79.65
2023-04-27T13:24:25.565Z,79.42
2023-04-27T13:25:25.562Z,80.42
2023-04-27T13:26:25.566Z,80.71
2023-04-27T13:27:25.548Z,79.65
2023-04-27T13:28:25.536Z,80.32
2023-04-27T13:29:25.516Z,79.46
2023-04-27T13:30:25.552Z,80.07
2023-04-27T13:31:25.527Z,79.65
2023-04-27T13:32:25.545Z,79.75
2023-04-27T13:33:25.519Z,79.52
2023-04-27T13:34:25.495Z,80.15
2023-04-27T13:35:25.486Z,80.86
2023-04-27T13:36:25.491Z,80.96
2023-04-27T13:37:25.471Z,79.36
2023-04-27T13:38:25.449Z,79.55
2023-04-27T13:39:25.437Z,79.75
2023-04-27T13:40:25.469Z,79.55
2023-04-27T13:41:25.432Z,79.03
2023-04-27T13:42:25.411Z,79.55
2023-04-27T13:43:25.416Z,81.23
2023-04-27T13:44:25.431Z,82.65
2023-04-27T13:45:25.445Z,80.43
2023-04-27T13:46:25.552Z,76.86
2023-04-27T13:47:25.444Z,76.23
2023-04-27T13:48:25.392Z,75.90
2023-04-27T13:49:25.357Z,76.09
2023-04-27T13:50:25.393Z,76.03
2023-04-27T13:51:25.382Z,77.13
2023-04-27T13:52:25.436Z,76.03
2023-04-27T13:53:25.346Z,74.20
2023-04-27T13:54:25.344Z,75.88
2023-04-27T13:55:25.326Z,76.68
2023-04-27T13:56:25.363Z,72.90
2023-04-27T13:57:25.320Z,71.96
2023-04-27T13:58:26.274Z,72.31
2023-04-27T13:59:25.329Z,71.48
2023-04-27T14:00:25.302Z,72.63
2023-04-27T14:01:25.399Z,73.50
2023-04-27T14:02:25.503Z,73.31
2023-04-27T14:03:25.478Z,71.96
2023-04-27T14:04:25.405Z,72.60
2023-04-27T14:05:25.278Z,73.33
2023-04-27T14:06:25.297Z,75.92
2023-04-27T14:07:25.271Z,75.47
2023-04-27T14:08:25.250Z,72.63
2023-04-27T14:09:25.243Z,73.25
2023-04-27T14:10:25.240Z,72.52
2023-04-27T14:11:25.255Z,70.42
2023-04-27T14:12:25.227Z,71.06
2023-04-27T14:13:25.214Z,71.73
2023-04-27T14:14:25.255Z,72.06
2023-04-27T14:15:25.206Z,73.44
2023-04-27T14:16:25.265Z,72.15
2023-04-27T14:17:25.214Z,70.16
2023-04-27T14:18:31.959Z,70.98
2023-04-27T14:19:25.189Z,72.24
2023-04-27T14:20:25.189Z,72.43
2023-04-27T14:21:25.200Z,72.75
2023-04-27T14:22:25.174Z,72.63
2023-04-27T14:23:25.182Z,72.59
2023-04-27T14:24:25.169Z,72.55
2023-04-27T14:25:25.189Z,73.22
2023-04-27T14:26:25.191Z,74.01
2023-04-27T14:27:25.162Z,72.72
2023-04-27T14:28:25.163Z,72.37
2023-04-27T14:29:25.139Z,72.15
2023-04-27T14:30:25.132Z,70.58
2023-04-27T14:31:25.196Z,70.46
2023-04-27T14:32:25.198Z,68.07
2023-04-27T14:33:25.147Z,67.36
2023-04-27T14:34:25.110Z,67.91
2023-04-27T14:35:25.102Z,70.03
2023-04-27T14:36:25.137Z,68.77
2023-04-27T14:37:25.090Z,69.45
2023-04-27T14:38:25.087Z,68.84
2023-04-27T14:39:25.085Z,67.94
2023-04-27T14:40:25.108Z,68.23
2023-04-27T14:41:25.102Z,68.43
2023-04-27T14:42:25.077Z,68.71
2023-04-27T14:43:25.069Z,68.65
2023-04-27T14:44:25.085Z,68.71
2023-04-27T14:45:27.432Z,70.38
2023-04-27T14:46:25.180Z,69.48
2023-04-27T14:47:25.171Z,70.06
2023-04-27T14:48:25.065Z,70.25
2023-04-27T14:49:25.057Z,71.06
2023-04-27T14:50:25.036Z,71.41
2023-04-27T14:51:25.056Z,70.73
2023-04-27T14:52:25.061Z,71.44
2023-04-27T14:53:25.032Z,70.54
2023-04-27T14:54:25.011Z,71.02
2023-04-27T14:55:25.019Z,70.60
2023-04-27T14:56:25.024Z,70.15
2023-04-27T14:57:25.005Z,70.76
2023-04-27T14:58:24.988Z,71.41
2023-04-27T14:59:24.974Z,71.56
2023-04-27T15:00:24.972Z,72.56
2023-04-27T15:01:25.024Z,72.75
2023-04-27T15:02:25.036Z,72.95
2023-04-27T15:03:25.074Z,72.81
2023-04-27T15:04:25.044Z,73.30
2023-04-27T15:05:24.937Z,73.46
2023-04-27T15:06:24.934Z,73.46
2023-04-27T15:07:24.932Z,75.45
2023-04-27T15:08:24.923Z,73.62
2023-04-27T15:09:24.917Z,72.69
2023-04-27T15:10:24.907Z,72.60
2023-04-27T15:11:24.917Z,71.37
2023-04-27T15:12:24.906Z,72.72
2023-04-27T15:13:24.901Z,72.95
2023-04-27T15:14:24.907Z,73.21
2023-04-27T15:15:24.869Z,72.92
2023-04-27T15:16:24.929Z,72.67
2023-04-27T15:17:24.885Z,71.30
2023-04-27T15:18:24.854Z,69.32
2023-04-27T15:19:24.858Z,69.32
2023-04-27T15:20:24.839Z,69.46
2023-04-27T15:21:24.829Z,69.00
2023-04-27T15:22:24.844Z,69.49
2023-04-27T15:23:24.837Z,70.16
2023-04-27T15:24:24.835Z,70.26
2023-04-27T15:25:24.824Z,72.54
2023-04-27T15:26:24.807Z,70.76
2023-04-27T15:27:24.819Z,70.86
2023-04-27T15:28:24.795Z,71.89
2023-04-27T15:29:24.779Z,72.75
2023-04-27T15:30:24.798Z,73.18
2023-04-27T15:31:24.900Z,71.73
2023-04-27T15:32:24.786Z,71.60
2023-04-27T15:33:24.790Z,71.64
2023-04-27T15:34:24.771Z,70.96
2023-04-27T15:35:24.766Z,69.93
2023-04-27T15:36:24.741Z,70.28
2023-04-27T15:37:24.761Z,70.38
2023-04-27T15:38:24.750Z,70.06
2023-04-27T15:39:24.750Z,70.12
2023-04-27T15:40:24.745Z,71.08
2023-04-27T15:41:24.728Z,71.28
2023-04-27T15:42:24.718Z,71.37
2023-04-27T15:43:24.733Z,70.96
2023-04-27T15:44:24.724Z,69.71
2023-04-27T15:45:24.713Z,70.22
2023-04-27T15:46:24.702Z,69.78
2023-04-27T15:47:24.701Z,69.52
2023-04-27T15:48:24.689Z,68.17
2023-04-27T15:49:24.694Z,69.23
2023-04-27T15:50:24.680Z,67.85
2023-04-27T15:51:24.664Z,69.32
2023-04-27T15:52:24.679Z,69.97
2023-04-27T15:53:24.648Z,70.32
2023-04-27T15:54:24.655Z,71.25
2023-04-27T15:55:24.634Z,72.47
2023-04-27T15:56:24.646Z,73.53
2023-04-27T15:57:24.663Z,72.63
2023-04-27T15:58:24.635Z,73.30
2023-04-27T15:59:24.614Z,72.81
2023-04-27T16:00:24.601Z,73.84
2023-04-27T16:01:24.634Z,75.19
2023-04-27T16:02:24.733Z,74.03
2023-04-27T16:03:24.623Z,75.13
2023-04-27T16:04:24.745Z,76.44
2023-04-27T16:05:24.577Z,74.99
2023-04-27T16:06:24.561Z,74.19
2023-04-27T16:07:24.594Z,74.54
2023-04-27T16:08:24.547Z,75.40
2023-04-27T16:09:24.583Z,74.34
2023-04-27T16:10:24.529Z,74.57
2023-04-27T16:11:24.758Z,75.24
2023-04-27T16:12:24.547Z,75.79
2023-04-27T16:13:24.524Z,74.92
2023-04-27T16:14:24.504Z,75.98
2023-04-27T16:15:24.525Z,75.79
2023-04-27T16:16:24.555Z,74.69
2023-04-27T16:17:24.558Z,74.69
2023-04-27T16:18:24.472Z,76.14
2023-04-27T16:19:24.492Z,77.38
2023-04-27T16:21:32.140Z,78.40
2023-04-27T16:22:32.147Z,79.02
2023-04-27T16:23:32.121Z,79.75
